createdAt,value
2022-12-08T00:02:51.599Z,27.15
2022-12-08T00:06:13.202Z,29.23
2022-12-08T00:09:39.774Z,28.77
2022-12-08T00:12:42.481Z,28.95
2022-12-08T00:15:44.968Z,28.58
2022-12-08T00:18:47.657Z,29.60
2022-12-08T00:21:50.984Z,27.23
2022-12-08T00:24:55.518Z,28.27
2022-12-08T00:27:58.247Z,27.40
2022-12-08T00:31:08.497Z,28.23
2022-12-08T00:34:12.459Z,24.85
2022-12-08T00:37:14.920Z,28.62
2022-12-08T00:40:17.134Z,29.60
2022-12-08T00:43:19.572Z,28.73
2022-12-08T00:46:22.163Z,28.05
2022-12-08T00:49:25.087Z,28.15
2022-12-08T00:52:27.487Z,29.70
2022-12-08T00:55:31.528Z,31.60
2022-12-08T00:58:35.337Z,27.60
2022-12-08T01:01:39.673Z,25.73
2022-12-08T01:04:42.354Z,25.85
2022-12-08T01:07:45.126Z,25.95
2022-12-08T01:10:47.438Z,25.15
2022-12-08T01:13:50.155Z,25.52
2022-12-08T01:16:53.962Z,27.60
2022-12-08T01:20:00.336Z,27.30
2022-12-08T01:23:02.550Z,24.25
2022-12-08T01:26:06.873Z,24.75
2022-12-08T01:29:09.907Z,26.45
2022-12-08T01:32:12.485Z,25.12
2022-12-08T01:35:14.942Z,27.75
2022-12-08T01:38:17.776Z,25.90
2022-12-08T01:41:29.576Z,26.20
2022-12-08T01:44:32.629Z,30.30
2022-12-08T01:47:40.648Z,26.92
2022-12-08T01:50:44.220Z,23.15
2022-12-08T01:53:48.293Z,22.67
2022-12-08T01:56:55.957Z,25.75
2022-12-08T02:00:05.767Z,23.38
2022-12-08T02:03:36.955Z,25.73
2022-12-08T02:06:43.329Z,24.50
2022-12-08T02:09:47.922Z,27.65
2022-12-08T02:12:53.026Z,26.45
2022-12-08T02:16:32.036Z,25.80
2022-12-08T02:20:19.718Z,25.90
2022-12-08T02:23:33.542Z,25.95
2022-12-08T02:26:56.633Z,24.50
2022-12-08T02:30:07.023Z,26.05
2022-12-08T02:33:33.093Z,24.27
2022-12-08T02:37:10.321Z,25.45
2022-12-08T02:40:41.722Z,26.83
2022-12-08T02:43:47.548Z,24.45
2022-12-08T02:46:59.276Z,22.90
2022-12-08T02:50:04.342Z,24.65
2022-12-08T02:56:28.581Z,27.05
2022-12-08T02:59:39.988Z,22.58
2022-12-08T03:06:09.573Z,22.33
2022-12-08T03:09:39.180Z,23.75
2022-12-08T03:13:12.443Z,25.52
2022-12-08T03:16:19.895Z,24.85
2022-12-08T03:19:26.858Z,25.30
2022-12-08T03:22:29.270Z,21.60
2022-12-08T03:25:37.981Z,23.60
2022-12-08T03:28:41.813Z,23.95
2022-12-08T03:31:52.154Z,21.90
2022-12-08T03:34:57.412Z,20.70
2022-12-08T03:38:07.098Z,21.45
2022-12-08T03:41:19.798Z,23.23
2022-12-08T03:44:22.330Z,23.08
2022-12-08T03:47:24.638Z,22.98
2022-12-08T03:50:27.406Z,21.85
2022-12-08T03:53:29.764Z,21.25
2022-12-08T03:56:35.481Z,21.55
2022-12-08T03:59:39.066Z,21.65
2022-12-08T04:02:43.213Z,24.70
2022-12-08T04:05:48.162Z,22.08
2022-12-08T04:08:50.858Z,21.25
2022-12-08T04:11:53.461Z,22.70
2022-12-08T04:14:57.515Z,24.35
2022-12-08T04:18:03.829Z,21.75
2022-12-08T04:21:06.401Z,23.23
2022-12-08T04:24:10.480Z,25.05
2022-12-08T04:27:12.649Z,26.45
2022-12-08T04:30:15.060Z,26.23
2022-12-08T04:33:17.685Z,23.73
2022-12-08T04:36:22.517Z,23.52
2022-12-08T04:39:24.918Z,28.58
2022-12-08T04:42:27.689Z,24.40
2022-12-08T04:45:30.918Z,23.02
2022-12-08T04:48:34.363Z,22.73
2022-12-08T04:51:37.027Z,26.42
2022-12-08T04:54:39.477Z,23.67
2022-12-08T04:57:41.698Z,22.70
2022-12-08T05:00:44.548Z,24.33
2022-12-08T05:03:46.762Z,26.33
2022-12-08T05:06:49.222Z,26.02
2022-12-08T05:09:51.384Z,21.55
2022-12-08T05:12:53.881Z,25.42
2022-12-08T05:16:09.486Z,26.00
2022-12-08T05:19:15.735Z,27.52
2022-12-08T05:22:18.270Z,24.15
2022-12-08T05:25:20.877Z,23.23
2022-12-08T05:31:46.003Z,25.23
2022-12-08T05:34:48.214Z,27.83
2022-12-08T05:37:50.769Z,26.50
2022-12-08T05:40:52.876Z,28.27
2022-12-08T05:43:55.386Z,27.08
2022-12-08T05:46:59.378Z,27.50
2022-12-08T05:50:03.592Z,28.00
2022-12-08T05:53:06.509Z,27.20
2022-12-08T05:56:09.201Z,31.30
2022-12-08T05:59:11.584Z,27.80
2022-12-08T06:02:14.131Z,29.25
2022-12-08T06:05:16.809Z,29.00
2022-12-08T06:08:19.089Z,25.52
2022-12-08T06:11:29.546Z,29.55
2022-12-08T06:14:33.861Z,32.75
2022-12-08T06:17:37.640Z,28.48
2022-12-08T06:20:39.898Z,29.85
2022-12-08T06:23:42.741Z,28.20
2022-12-08T06:26:45.893Z,28.12
2022-12-08T06:29:48.401Z,29.75
2022-12-08T06:32:50.629Z,27.92
2022-12-08T06:35:53.417Z,29.48
2022-12-08T06:38:56.189Z,30.05
2022-12-08T06:42:17.579Z,29.48
2022-12-08T06:45:19.898Z,29.75
2022-12-08T06:48:22.346Z,30.27
2022-12-08T06:51:24.593Z,30.35
2022-12-08T06:54:27.434Z,36.33
2022-12-08T06:57:29.722Z,38.70
2022-12-08T07:00:32.369Z,40.00
2022-12-08T07:03:35.918Z,32.63
2022-12-08T07:06:38.600Z,38.63
2022-12-08T07:09:40.690Z,42.55
2022-12-08T07:12:43.124Z,45.35
2022-12-08T07:15:45.289Z,41.10
2022-12-08T07:18:48.038Z,48.03
2022-12-08T07:21:50.311Z,46.97
2022-12-08T07:24:52.723Z,47.50
2022-12-08T07:27:54.909Z,44.05
2022-12-08T07:30:57.502Z,44.30
2022-12-08T07:33:59.742Z,49.50
2022-12-08T07:37:02.457Z,46.70
2022-12-08T07:40:09.244Z,49.78
2022-12-08T07:43:11.598Z,52.85
2022-12-08T07:46:16.320Z,48.80
2022-12-08T07:49:18.775Z,56.20
2022-12-08T07:52:20.886Z,49.33
2022-12-08T07:55:23.279Z,51.25
2022-12-08T07:58:25.914Z,49.83
2022-12-08T08:01:31.976Z,43.50
2022-12-08T08:04:34.524Z,55.63
2022-12-08T08:07:37.263Z,52.28
2022-12-08T08:10:39.699Z,45.10
2022-12-08T08:13:41.898Z,50.85
2022-12-08T08:16:46.870Z,46.85
2022-12-08T08:19:49.142Z,50.05
2022-12-08T08:22:52.435Z,51.00
2022-12-08T08:25:54.890Z,54.10
2022-12-08T08:28:57.571Z,46.65
2022-12-08T08:31:59.764Z,46.78
2022-12-08T08:35:02.319Z,45.70
2022-12-08T08:38:04.487Z,45.67
2022-12-08T08:41:09.202Z,43.58
2022-12-08T08:44:13.879Z,44.33
2022-12-08T08:47:16.407Z,47.83
2022-12-08T08:50:18.984Z,41.28
2022-12-08T08:53:21.772Z,40.12
2022-12-08T08:56:24.247Z,41.88
2022-12-08T08:59:29.343Z,43.75
2022-12-08T09:02:31.564Z,41.45
2022-12-08T09:05:34.304Z,42.15
2022-12-08T09:08:37.573Z,38.92
2022-12-08T09:11:43.245Z,36.90
2022-12-08T09:14:46.033Z,35.85
2022-12-08T09:17:48.634Z,32.75
2022-12-08T09:20:50.844Z,31.27
2022-12-08T09:23:55.561Z,37.60
2022-12-08T09:26:57.712Z,33.90
2022-12-08T09:30:00.339Z,35.80
2022-12-08T09:33:02.498Z,33.15
2022-12-08T09:36:05.330Z,36.72
2022-12-08T09:39:09.103Z,36.53
2022-12-08T09:42:11.797Z,39.08
2022-12-08T09:45:16.460Z,38.33
2022-12-08T09:48:23.617Z,38.53
2022-12-08T09:51:31.410Z,39.42
2022-12-08T09:54:35.757Z,42.53
2022-12-08T09:57:38.011Z,43.45
2022-12-08T10:00:40.420Z,33.92
2022-12-08T10:03:43.282Z,35.05
2022-12-08T10:06:59.210Z,30.17
2022-12-08T10:10:11.600Z,36.47
2022-12-08T10:13:16.543Z,32.08
2022-12-08T10:16:29.846Z,34.00
2022-12-08T10:19:34.401Z,36.25
2022-12-08T10:22:42.866Z,31.87
2022-12-08T10:25:54.372Z,29.58
2022-12-08T10:29:02.618Z,27.73
2022-12-08T10:32:22.987Z,26.55
2022-12-08T10:35:42.088Z,27.33
2022-12-08T10:38:44.351Z,27.00
2022-12-08T10:41:46.769Z,25.52
2022-12-08T10:44:56.031Z,23.25
2022-12-08T10:48:23.827Z,27.60
2022-12-08T10:51:30.401Z,23.80
2022-12-08T10:54:37.210Z,24.33
2022-12-08T10:57:42.155Z,27.00
2022-12-08T11:00:44.829Z,26.17
2022-12-08T11:03:52.640Z,25.45
2022-12-08T11:06:55.109Z,25.75
2022-12-08T11:09:58.303Z,22.48
2022-12-08T11:13:27.317Z,24.20
2022-12-08T11:16:29.612Z,25.85
2022-12-08T11:19:37.949Z,21.67
2022-12-08T11:22:42.336Z,17.67
2022-12-08T11:25:45.121Z,17.83
2022-12-08T11:28:47.480Z,20.10
2022-12-08T11:31:57.644Z,22.60
2022-12-08T11:35:06.434Z,20.27
2022-12-08T11:38:21.490Z,22.92
2022-12-08T11:41:29.977Z,22.73
2022-12-08T11:44:58.736Z,25.27
2022-12-08T11:48:04.262Z,22.87
2022-12-08T11:51:18.468Z,24.12
2022-12-08T11:54:42.749Z,22.77
2022-12-08T11:57:45.668Z,20.33
2022-12-08T12:00:48.917Z,21.23
2022-12-08T12:04:24.697Z,22.65
2022-12-08T12:07:42.477Z,21.12
2022-12-08T12:10:54.763Z,19.00
2022-12-08T12:14:21.359Z,20.52
2022-12-08T12:17:31.225Z,20.45
2022-12-08T12:20:39.581Z,18.95
2022-12-08T12:23:54.813Z,20.33
2022-12-08T12:27:15.682Z,21.08
2022-12-08T12:33:26.593Z,21.33
2022-12-08T12:36:29.474Z,22.30
2022-12-08T12:39:45.655Z,19.65
2022-12-08T12:43:10.723Z,23.87
2022-12-08T12:46:41.228Z,19.62
2022-12-08T12:49:45.717Z,21.27
2022-12-08T12:52:48.584Z,22.83
2022-12-08T12:56:02.352Z,26.37
2022-12-08T12:59:36.274Z,25.50
2022-12-08T13:02:43.891Z,21.00
2022-12-08T13:05:51.306Z,26.37
2022-12-08T13:08:56.208Z,22.85
2022-12-08T13:12:02.314Z,22.92
2022-12-08T13:15:07.141Z,26.10
2022-12-08T13:18:39.515Z,25.73
2022-12-08T13:21:42.354Z,21.52
2022-12-08T13:24:45.174Z,23.23
2022-12-08T13:27:55.155Z,20.50
2022-12-08T13:31:02.083Z,21.17
2022-12-08T13:34:06.839Z,19.83
2022-12-08T13:37:20.771Z,23.05
2022-12-08T13:40:27.366Z,22.85
2022-12-08T13:44:02.175Z,21.05
2022-12-08T13:53:10.330Z,21.77
2022-12-08T13:57:37.531Z,26.08
2022-12-08T14:00:40.203Z,28.25
2022-12-08T14:04:30.922Z,25.48
2022-12-08T14:07:19.849Z,20.00
2022-12-08T14:10:27.746Z,19.92
2022-12-08T14:13:34.204Z,19.17
2022-12-08T14:16:40.204Z,22.25
2022-12-08T14:19:45.177Z,26.67
2022-12-08T14:22:48.607Z,28.35
2022-12-08T14:25:50.941Z,29.77
2022-12-08T14:28:53.707Z,28.77
2022-12-08T14:31:56.050Z,30.17
2022-12-08T14:35:07.817Z,26.50
2022-12-08T14:38:14.336Z,27.67
2022-12-08T14:41:16.789Z,22.23
2022-12-08T14:44:24.444Z,25.17
2022-12-08T14:47:34.641Z,27.80
2022-12-08T14:50:40.334Z,26.17
2022-12-08T14:53:59.970Z,25.35
2022-12-08T14:57:03.195Z,23.17
2022-12-08T15:00:18.657Z,25.37
2022-12-08T15:03:23.261Z,26.37
2022-12-08T15:06:25.743Z,24.80
2022-12-08T15:09:38.905Z,26.45
2022-12-08T15:13:01.230Z,28.00
2022-12-08T15:16:43.700Z,26.30
2022-12-08T15:19:58.738Z,22.02
2022-12-08T15:23:01.016Z,22.42
2022-12-08T15:26:05.104Z,27.08
2022-12-08T15:29:20.736Z,26.27
2022-12-08T15:32:23.898Z,32.15
2022-12-08T15:35:26.217Z,30.85
2022-12-08T15:38:29.430Z,27.40
2022-12-08T15:41:31.625Z,27.85
2022-12-08T15:44:34.114Z,26.60
2022-12-08T15:47:36.318Z,23.67
2022-12-08T15:50:38.803Z,24.75
2022-12-08T15:53:42.351Z,24.10
2022-12-08T15:57:17.882Z,23.70
2022-12-08T16:00:51.012Z,23.58
2022-12-08T16:04:36.799Z,23.12
2022-12-08T16:07:29.392Z,26.42
2022-12-08T16:10:51.614Z,26.73
2022-12-08T16:13:59.555Z,23.75
2022-12-08T16:17:18.081Z,26.00
2022-12-08T16:20:24.435Z,24.50
2022-12-08T16:23:43.739Z,25.05
2022-12-08T16:30:17.192Z,25.77
2022-12-08T16:33:19.955Z,26.92
2022-12-08T16:36:22.374Z,26.20
2022-12-08T16:39:24.851Z,24.85
2022-12-08T16:42:45.817Z,21.42
2022-12-08T16:45:50.402Z,21.80
2022-12-08T16:48:52.843Z,21.55
2022-12-08T16:51:55.086Z,21.73
2022-12-08T16:54:57.653Z,20.65
2022-12-08T16:57:59.996Z,21.23
2022-12-08T17:01:03.146Z,22.05
2022-12-08T17:07:28.235Z,18.17
2022-12-08T17:10:32.095Z,20.88
2022-12-08T17:13:36.709Z,21.27
2022-12-08T17:16:39.409Z,24.48
2022-12-08T17:19:42.035Z,24.27
2022-12-08T17:22:44.754Z,24.87
2022-12-08T17:26:03.773Z,25.90
2022-12-08T17:29:06.246Z,27.13
2022-12-08T17:32:08.738Z,26.15
2022-12-08T17:35:11.246Z,26.67
2022-12-08T17:38:15.822Z,27.42
2022-12-08T17:41:17.930Z,30.58
2022-12-08T17:44:20.546Z,26.98
2022-12-08T17:47:22.787Z,23.30
2022-12-08T17:50:30.567Z,25.48
2022-12-08T17:53:37.176Z,27.80
2022-12-08T17:56:40.051Z,26.98
2022-12-08T17:59:42.171Z,27.50
2022-12-08T18:02:44.676Z,23.65
2022-12-08T18:05:50.980Z,22.13
2022-12-08T18:08:53.115Z,21.37
2022-12-08T18:11:56.013Z,23.02
2022-12-08T18:14:59.614Z,20.80
2022-12-08T18:18:02.294Z,22.15
2022-12-08T18:21:04.614Z,21.60
2022-12-08T18:24:07.995Z,22.83
2022-12-08T18:27:10.281Z,22.10
2022-12-08T18:30:16.566Z,21.95
2022-12-08T18:33:19.399Z,23.85
2022-12-08T18:36:24.783Z,23.55
2022-12-08T18:39:30.710Z,23.75
2022-12-08T18:42:33.265Z,21.83
2022-12-08T18:45:38.691Z,27.50
2022-12-08T18:48:46.521Z,24.63
2022-12-08T18:51:48.988Z,25.92
2022-12-08T18:55:05.810Z,27.55
2022-12-08T18:58:10.888Z,25.40
2022-12-08T19:01:16.050Z,26.65
2022-12-08T19:04:28.283Z,24.87
2022-12-08T19:07:31.843Z,25.10
2022-12-08T19:10:38.147Z,27.85
2022-12-08T19:13:40.855Z,26.70
2022-12-08T19:16:43.210Z,23.58
2022-12-08T19:19:45.690Z,22.42
2022-12-08T19:22:50.153Z,23.35
2022-12-08T19:25:52.582Z,24.00
2022-12-08T19:28:55.584Z,24.48
2022-12-08T19:31:58.862Z,23.58
2022-12-08T19:35:01.112Z,21.20
2022-12-08T19:38:03.668Z,21.17
2022-12-08T19:41:24.443Z,23.10
2022-12-08T19:44:28.789Z,22.33
2022-12-08T19:47:33.464Z,22.87
2022-12-08T19:50:36.238Z,19.73
2022-12-08T19:53:41.811Z,20.58
2022-12-08T19:56:47.137Z,20.25
2022-12-08T19:59:54.573Z,21.40
2022-12-08T20:03:00.270Z,21.45
2022-12-08T20:06:02.845Z,26.20
2022-12-08T20:09:05.401Z,23.65
2022-12-08T20:12:08.145Z,21.35
2022-12-08T20:15:11.102Z,22.52
2022-12-08T20:18:15.589Z,21.50
2022-12-08T20:21:17.890Z,21.87
2022-12-08T20:24:20.292Z,23.20
2022-12-08T20:27:23.656Z,21.95
2022-12-08T20:30:26.375Z,24.25
2022-12-08T20:33:28.719Z,26.10
2022-12-08T20:36:31.490Z,25.42
2022-12-08T20:39:33.899Z,24.87
2022-12-08T20:42:36.347Z,25.95
2022-12-08T20:45:38.885Z,26.10
2022-12-08T20:48:42.931Z,25.95
2022-12-08T20:51:45.293Z,25.42
2022-12-08T20:54:48.049Z,28.00
2022-12-08T20:57:50.361Z,27.95
2022-12-08T21:00:53.144Z,26.23
2022-12-08T21:03:55.561Z,29.75
2022-12-08T21:06:58.725Z,24.90
2022-12-08T21:10:01.716Z,26.08
2022-12-08T21:13:05.492Z,27.62
2022-12-08T21:16:13.277Z,27.87
2022-12-08T21:19:16.089Z,28.15
2022-12-08T21:22:18.437Z,26.23
2022-12-08T21:25:21.384Z,26.52
2022-12-08T21:28:23.783Z,28.65
2022-12-08T21:31:27.024Z,30.35
2022-12-08T21:34:34.177Z,33.25
2022-12-08T21:37:39.714Z,31.20
2022-12-08T21:40:43.251Z,31.48
2022-12-08T21:43:45.961Z,31.73
2022-12-08T21:46:48.320Z,32.85
2022-12-08T21:49:51.143Z,35.03
2022-12-08T21:52:53.536Z,30.65
2022-12-08T21:55:56.352Z,33.80
2022-12-08T21:58:58.682Z,30.58
2022-12-08T22:02:01.675Z,31.65
2022-12-08T22:05:05.005Z,33.35
2022-12-08T22:08:08.681Z,31.77
2022-12-08T22:11:12.120Z,34.78
2022-12-08T22:14:15.362Z,30.95
2022-12-08T22:17:18.710Z,33.50
2022-12-08T22:20:21.316Z,35.83
2022-12-08T22:23:23.984Z,34.33
2022-12-08T22:26:26.410Z,32.75
2022-12-08T22:29:30.054Z,35.67
2022-12-08T22:32:32.585Z,35.10
2022-12-08T22:35:35.393Z,33.17
2022-12-08T22:38:37.515Z,32.67
2022-12-08T22:41:40.155Z,36.70
2022-12-08T22:44:42.288Z,35.90
2022-12-08T22:47:44.915Z,36.55
2022-12-08T22:50:47.017Z,35.47
2022-12-08T22:53:50.148Z,36.88
2022-12-08T22:56:52.367Z,31.95
2022-12-08T22:59:56.819Z,31.52
2022-12-08T23:02:59.066Z,36.70
2022-12-08T23:06:01.810Z,36.33
2022-12-08T23:09:06.511Z,34.97
2022-12-08T23:12:09.096Z,33.15
2022-12-08T23:15:11.528Z,34.53
2022-12-08T23:18:16.766Z,35.17
2022-12-08T23:21:20.367Z,35.00
2022-12-08T23:24:22.804Z,38.13
2022-12-08T23:27:25.001Z,34.92
2022-12-08T23:30:28.947Z,34.28
2022-12-08T23:33:31.614Z,37.70
2022-12-08T23:36:34.100Z,35.55
2022-12-08T23:39:36.576Z,39.33
2022-12-08T23:42:39.364Z,37.28
2022-12-08T23:45:41.728Z,36.22
2022-12-08T23:48:44.695Z,34.95
2022-12-08T23:51:47.096Z,38.42
2022-12-08T23:54:50.398Z,37.95
2022-12-08T23:57:52.898Z,37.92
